createdAt,value
2023-05-25T00:01:15.000Z,277.84
2023-05-25T00:03:21.000Z,277.9
2023-05-25T00:04:48.000Z,277.84
2023-05-25T00:06:54.000Z,277.9
2023-05-25T00:08:21.000Z,277.9
2023-05-25T00:10:27.000Z,277.84
2023-05-25T00:11:53.000Z,277.77
2023-05-25T00:13:59.000Z,277.71
2023-05-25T00:15:26.000Z,277.65
2023-05-25T00:17:32.000Z,277.65
2023-05-25T00:18:59.000Z,277.59
2023-05-25T00:21:05.000Z,277.59
2023-05-25T00:23:56.000Z,277.77
2023-05-25T00:25:22.000Z,277.77
2023-05-25T00:27:28.000Z,277.77
2023-05-25T00:28:55.000Z,277.71
2023-05-25T00:31:01.000Z,277.52
2023-05-25T00:32:28.000Z,277.59
2023-05-25T00:34:34.000Z,277.84
2023-05-25T00:36:00.000Z,277.96
2023-05-25T00:38:06.000Z,277.96
2023-05-25T00:39:33.000Z,277.96
2023-05-25T00:41:39.000Z,277.77
2023-05-25T00:43:05.000Z,277.71
2023-05-25T00:45:12.000Z,277.46
2023-05-25T00:46:38.000Z,277.59
2023-05-25T00:48:44.000Z,277.59
2023-05-25T00:50:11.000Z,277.52
2023-05-25T00:52:17.000Z,277.52
2023-05-25T00:53:43.000Z,277.52
2023-05-25T00:55:49.000Z,277.46
2023-05-25T00:57:16.000Z,277.4
2023-05-25T00:59:22.000Z,277.46
2023-05-25T01:02:14.000Z,277.52
2023-05-25T01:03:40.000Z,277.52
2023-05-25T01:05:47.000Z,277.46
2023-05-25T01:07:13.000Z,277.46
2023-05-25T01:09:19.000Z,277.52
2023-05-25T01:10:46.000Z,277.34
2023-05-25T01:12:52.000Z,277.4
2023-05-25T01:14:19.000Z,277.34
2023-05-25T01:16:25.000Z,277.21
2023-05-25T01:17:51.000Z,277.27
2023-05-25T01:21:26.000Z,277.09
2023-05-25T01:23:32.000Z,277.21
2023-05-25T01:24:59.000Z,277.21
2023-05-25T01:27:05.000Z,277.09
2023-05-25T01:28:31.000Z,277.15
2023-05-25T01:30:37.000Z,277.15
2023-05-25T01:32:04.000Z,277.27
2023-05-25T01:34:10.000Z,277.34
2023-05-25T01:35:37.000Z,277.15
2023-05-25T01:37:43.000Z,277.09
2023-05-25T01:40:34.000Z,277.21
2023-05-25T01:42:00.000Z,277.21
2023-05-25T01:44:06.000Z,277.21
2023-05-25T01:45:33.000Z,276.96
2023-05-25T01:47:39.000Z,276.96
2023-05-25T01:49:06.000Z,276.9
2023-05-25T01:51:12.000Z,276.9
2023-05-25T01:52:38.000Z,276.96
2023-05-25T01:54:45.000Z,277.02
2023-05-25T01:56:11.000Z,277.02
2023-05-25T01:58:17.000Z,277.15
2023-05-25T01:59:44.000Z,277.21
2023-05-25T02:01:50.000Z,277.15
2023-05-25T02:03:18.000Z,277.15
2023-05-25T02:05:24.000Z,277.15
2023-05-25T02:06:50.000Z,277.21
2023-05-25T02:08:56.000Z,277.15
2023-05-25T02:10:23.000Z,277.02
2023-05-25T02:12:29.000Z,276.9
2023-05-25T02:13:56.000Z,276.84
2023-05-25T02:16:02.000Z,276.84
2023-05-25T02:18:53.000Z,276.84
2023-05-25T02:20:20.000Z,276.84
2023-05-25T02:22:26.000Z,276.77
2023-05-25T02:23:53.000Z,276.84
2023-05-25T02:25:59.000Z,276.84
2023-05-25T02:27:25.000Z,276.84
2023-05-25T02:29:31.000Z,276.71
2023-05-25T02:30:58.000Z,276.59
2023-05-25T02:33:04.000Z,276.71
2023-05-25T02:34:31.000Z,276.77
2023-05-25T02:36:37.000Z,276.77
2023-05-25T02:38:03.000Z,276.77
2023-05-25T02:40:09.000Z,276.84
2023-05-25T02:41:36.000Z,276.71
2023-05-25T02:43:42.000Z,276.71
2023-05-25T02:45:09.000Z,276.84
2023-05-25T02:47:15.000Z,276.96
2023-05-25T02:48:41.000Z,276.84
2023-05-25T02:50:47.000Z,276.65
2023-05-25T02:52:14.000Z,276.71
2023-05-25T02:54:20.000Z,276.65
2023-05-25T02:57:11.000Z,276.46
2023-05-25T02:58:38.000Z,276.59
2023-05-25T03:00:44.000Z,276.46
2023-05-25T03:02:11.000Z,276.46
2023-05-25T03:04:17.000Z,276.46
2023-05-25T03:05:43.000Z,276.46
2023-05-25T03:07:50.000Z,276.27
2023-05-25T03:09:16.000Z,276.34
2023-05-25T03:11:22.000Z,276.21
2023-05-25T03:12:49.000Z,276.27
2023-05-25T03:14:55.000Z,276.46
2023-05-25T03:16:21.000Z,276.46
2023-05-25T03:18:27.000Z,276.59
2023-05-25T03:19:54.000Z,276.71
2023-05-25T03:22:00.000Z,276.65
2023-05-25T03:23:27.000Z,276.59
2023-05-25T03:25:33.000Z,276.65
2023-05-25T03:26:59.000Z,276.77
2023-05-25T03:29:05.000Z,276.71
2023-05-25T03:30:32.000Z,276.65
2023-05-25T03:32:38.000Z,276.71
2023-05-25T03:35:29.000Z,276.59
2023-05-25T03:36:56.000Z,276.52
2023-05-25T03:39:02.000Z,276.59
2023-05-25T03:40:28.000Z,276.65
2023-05-25T03:42:34.000Z,276.4
2023-05-25T03:44:01.000Z,276.59
2023-05-25T03:46:07.000Z,276.34
2023-05-25T03:47:34.000Z,276.46
2023-05-25T03:49:40.000Z,276.46
2023-05-25T03:51:06.000Z,276.46
2023-05-25T03:53:12.000Z,276.4
2023-05-25T03:54:39.000Z,276.4
2023-05-25T03:56:45.000Z,276.4
2023-05-25T03:58:11.000Z,276.4
2023-05-25T04:00:18.000Z,276.59
2023-05-25T04:01:44.000Z,276.71
2023-05-25T04:03:50.000Z,276.65
2023-05-25T04:05:17.000Z,276.9
2023-05-25T04:07:23.000Z,276.9
2023-05-25T04:08:50.000Z,276.9
2023-05-25T04:10:56.000Z,276.9
2023-05-25T04:13:47.000Z,276.96
2023-05-25T04:15:14.000Z,276.96
2023-05-25T04:17:20.000Z,276.96
2023-05-25T04:18:46.000Z,276.96
2023-05-25T04:20:52.000Z,277.02
2023-05-25T04:22:19.000Z,277.09
2023-05-25T04:24:25.000Z,277.09
2023-05-25T04:25:51.000Z,277.15
2023-05-25T04:27:58.000Z,277.21
2023-05-25T04:29:24.000Z,277.34
2023-05-25T04:31:30.000Z,277.4
2023-05-25T04:32:57.000Z,277.46
2023-05-25T04:35:03.000Z,277.52
2023-05-25T04:36:30.000Z,277.59
2023-05-25T04:38:36.000Z,277.71
2023-05-25T04:40:02.000Z,277.77
2023-05-25T04:42:08.000Z,277.9
2023-05-25T04:43:35.000Z,277.96
2023-05-25T04:45:43.000Z,277.96
2023-05-25T04:47:10.000Z,278.15
2023-05-25T04:49:16.000Z,278.4
2023-05-25T04:52:07.000Z,278.34
2023-05-25T04:53:34.000Z,278.4
2023-05-25T04:55:40.000Z,278.52
2023-05-25T04:57:07.000Z,278.59
2023-05-25T04:59:14.000Z,278.52
2023-05-25T05:00:40.000Z,278.65
2023-05-25T05:02:46.000Z,278.59
2023-05-25T05:04:13.000Z,278.52
2023-05-25T05:06:19.000Z,278.52
2023-05-25T05:07:46.000Z,278.59
2023-05-25T05:09:52.000Z,278.71
2023-05-25T05:11:18.000Z,278.65
2023-05-25T05:13:25.000Z,278.71
2023-05-25T05:14:51.000Z,278.77
2023-05-25T05:16:57.000Z,278.77
2023-05-25T05:18:24.000Z,278.77
2023-05-25T05:20:30.000Z,278.77
2023-05-25T05:21:57.000Z,278.71
2023-05-25T05:24:03.000Z,278.9
2023-05-25T05:25:29.000Z,279.09
2023-05-25T05:27:36.000Z,279.02
2023-05-25T05:30:27.000Z,279.09
2023-05-25T05:31:53.000Z,279.21
2023-05-25T05:33:59.000Z,279.21
2023-05-25T05:35:26.000Z,279.34
2023-05-25T05:37:32.000Z,279.52
2023-05-25T05:38:59.000Z,279.65
2023-05-25T05:41:05.000Z,279.71
2023-05-25T05:42:31.000Z,279.77
2023-05-25T05:44:37.000Z,279.9
2023-05-25T05:46:04.000Z,279.96
2023-05-25T05:48:10.000Z,280.02
2023-05-25T05:49:37.000Z,280.09
2023-05-25T05:51:43.000Z,280.21
2023-05-25T05:53:09.000Z,280.21
2023-05-25T05:55:16.000Z,280.27
2023-05-25T05:56:42.000Z,280.34
2023-05-25T05:58:48.000Z,280.4
2023-05-25T06:00:15.000Z,280.46
2023-05-25T06:02:21.000Z,280.46
2023-05-25T06:03:47.000Z,280.59
2023-05-25T06:05:53.000Z,280.65
2023-05-25T06:08:45.000Z,280.77
2023-05-25T06:10:11.000Z,280.84
2023-05-25T06:12:17.000Z,280.9
2023-05-25T06:13:44.000Z,280.96
2023-05-25T06:15:50.000Z,281.02
2023-05-25T06:17:17.000Z,281.09
2023-05-25T06:19:23.000Z,281.15
2023-05-25T06:20:50.000Z,281.15
2023-05-25T06:22:56.000Z,281.34
2023-05-25T06:24:22.000Z,281.4
2023-05-25T06:26:28.000Z,281.34
2023-05-25T06:27:55.000Z,281.46
2023-05-25T06:30:01.000Z,281.52
2023-05-25T06:31:27.000Z,281.59
2023-05-25T06:33:34.000Z,281.65
2023-05-25T06:35:00.000Z,281.77
2023-05-25T06:37:06.000Z,281.9
2023-05-25T06:38:33.000Z,281.96
2023-05-25T06:40:39.000Z,281.96
2023-05-25T06:42:06.000Z,282.09
2023-05-25T06:44:12.000Z,282.15
2023-05-25T06:47:03.000Z,282.34
2023-05-25T06:48:30.000Z,282.34
2023-05-25T06:50:36.000Z,282.52
2023-05-25T06:52:02.000Z,282.71
2023-05-25T06:54:08.000Z,282.77
2023-05-25T06:55:35.000Z,282.77
2023-05-25T06:57:41.000Z,282.71
2023-05-25T06:59:07.000Z,282.77
2023-05-25T07:01:13.000Z,282.9
2023-05-25T07:02:40.000Z,282.96
2023-05-25T07:04:46.000Z,283.02
2023-05-25T07:06:13.000Z,283.02
2023-05-25T07:08:19.000Z,283.02
2023-05-25T07:09:45.000Z,282.96
2023-05-25T07:11:51.000Z,282.9
2023-05-25T07:13:18.000Z,282.84
2023-05-25T07:15:24.000Z,282.84
2023-05-25T07:16:51.000Z,282.9
2023-05-25T07:18:57.000Z,283.02
2023-05-25T07:20:25.000Z,283.09
2023-05-25T07:22:31.000Z,283.27
2023-05-25T07:25:22.000Z,283.4
2023-05-25T07:26:49.000Z,283.77
2023-05-25T07:28:55.000Z,283.84
2023-05-25T07:30:21.000Z,284.15
2023-05-25T07:32:27.000Z,284.21
2023-05-25T07:33:54.000Z,284.27
2023-05-25T07:36:00.000Z,284.21
2023-05-25T07:37:27.000Z,284.21
2023-05-25T07:39:33.000Z,284.52
2023-05-25T07:40:59.000Z,284.46
2023-05-25T07:43:05.000Z,284.59
2023-05-25T07:44:33.000Z,284.71
2023-05-25T07:46:39.000Z,284.71
2023-05-25T07:48:05.000Z,284.96
2023-05-25T07:50:12.000Z,285.02
2023-05-25T07:51:38.000Z,285.09
2023-05-25T07:53:44.000Z,285.21
2023-05-25T07:55:11.000Z,285.21
2023-05-25T07:57:17.000Z,285.21
2023-05-25T07:58:44.000Z,285.15
2023-05-25T08:00:50.000Z,285.34
2023-05-25T08:03:41.000Z,285.59
2023-05-25T08:05:14.000Z,285.59
2023-05-25T08:07:21.000Z,285.65
2023-05-25T08:08:47.000Z,285.77
2023-05-25T08:10:53.000Z,285.77
2023-05-25T08:12:20.000Z,285.9
2023-05-25T08:14:50.000Z,286.15
2023-05-25T08:16:17.000Z,286.34
2023-05-25T08:18:23.000Z,286.27
2023-05-25T08:19:49.000Z,286.27
2023-05-25T08:21:56.000Z,286.52
2023-05-25T08:23:22.000Z,286.46
2023-05-25T08:25:28.000Z,286.52
2023-05-25T08:26:55.000Z,286.65
2023-05-25T08:29:01.000Z,286.77
2023-05-25T08:30:28.000Z,286.84
2023-05-25T08:32:34.000Z,286.96
2023-05-25T08:34:00.000Z,286.96
2023-05-25T08:36:07.000Z,286.96
2023-05-25T08:37:33.000Z,287.02
2023-05-25T08:39:39.000Z,286.96
2023-05-25T08:42:30.000Z,287.09
2023-05-25T08:43:57.000Z,287.15
2023-05-25T08:46:03.000Z,287.15
2023-05-25T08:47:29.000Z,287.27
2023-05-25T08:49:36.000Z,287.34
2023-05-25T08:51:02.000Z,287.4
2023-05-25T08:53:08.000Z,287.4
2023-05-25T08:54:35.000Z,287.46
2023-05-25T08:56:41.000Z,287.59
2023-05-25T08:58:08.000Z,287.52
2023-05-25T09:00:14.000Z,287.65
2023-05-25T09:01:40.000Z,287.77
2023-05-25T09:03:47.000Z,287.84
2023-05-25T09:05:13.000Z,287.77
2023-05-25T09:07:19.000Z,287.59
2023-05-25T09:08:46.000Z,287.71
2023-05-25T09:10:52.000Z,287.84
2023-05-25T09:12:19.000Z,287.9
2023-05-25T09:14:25.000Z,288.15
2023-05-25T09:15:51.000Z,288.34
2023-05-25T09:17:57.000Z,288.46
2023-05-25T09:20:49.000Z,288.59
2023-05-25T09:22:16.000Z,288.71
2023-05-25T09:24:22.000Z,288.46
2023-05-25T09:25:49.000Z,288.65
2023-05-25T09:27:55.000Z,288.71
2023-05-25T09:29:22.000Z,288.71
2023-05-25T09:31:28.000Z,288.9
2023-05-25T09:32:54.000Z,289.02
2023-05-25T09:35:00.000Z,289.02
2023-05-25T09:36:27.000Z,288.96
2023-05-25T09:38:33.000Z,288.96
2023-05-25T09:40:00.000Z,288.9
2023-05-25T09:42:06.000Z,289.09
2023-05-25T09:43:33.000Z,289.09
2023-05-25T09:45:51.000Z,289.34
2023-05-25T09:47:17.000Z,289.4
2023-05-25T09:49:23.000Z,289.46
2023-05-25T09:50:50.000Z,289.59
2023-05-25T09:52:56.000Z,289.59
2023-05-25T09:54:22.000Z,289.59
2023-05-25T09:56:29.000Z,289.71
2023-05-25T09:59:20.000Z,289.71
2023-05-25T10:00:46.000Z,289.59
2023-05-25T10:02:52.000Z,289.84
2023-05-25T10:04:19.000Z,289.96
2023-05-25T10:06:25.000Z,290.09
2023-05-25T10:07:52.000Z,289.9
2023-05-25T10:09:58.000Z,289.96
2023-05-25T10:11:24.000Z,289.96
2023-05-25T10:13:30.000Z,290.27
2023-05-25T10:14:57.000Z,290.34
2023-05-25T10:17:03.000Z,290.27
2023-05-25T10:18:29.000Z,290.34
2023-05-25T10:20:36.000Z,290.21
2023-05-25T10:22:02.000Z,290.15
2023-05-25T10:24:08.000Z,290.4
2023-05-25T10:25:35.000Z,290.4
2023-05-25T10:27:41.000Z,290.4
2023-05-25T10:29:08.000Z,290.65
2023-05-25T10:31:14.000Z,290.65
2023-05-25T10:32:41.000Z,290.65
2023-05-25T10:34:47.000Z,290.71
2023-05-25T10:37:38.000Z,290.65
2023-05-25T10:39:05.000Z,290.77
2023-05-25T10:41:11.000Z,290.9
2023-05-25T10:42:37.000Z,290.9
2023-05-25T10:44:43.000Z,290.96
2023-05-25T10:46:10.000Z,291.09
2023-05-25T10:48:16.000Z,291.02
2023-05-25T10:49:43.000Z,290.84
2023-05-25T10:51:49.000Z,291.15
2023-05-25T10:53:15.000Z,291.21
2023-05-25T10:55:22.000Z,291.21
2023-05-25T10:56:48.000Z,291.15
2023-05-25T10:58:54.000Z,291.21
2023-05-25T11:00:21.000Z,291.21
2023-05-25T11:02:27.000Z,290.96
2023-05-25T11:03:54.000Z,291.15
2023-05-25T11:06:00.000Z,291.4
2023-05-25T11:07:26.000Z,291.34
2023-05-25T11:09:33.000Z,291.65
2023-05-25T11:10:59.000Z,291.77
2023-05-25T11:13:05.000Z,291.71
2023-05-25T11:15:57.000Z,291.4
2023-05-25T11:17:23.000Z,291.59
2023-05-25T11:19:29.000Z,291.77
2023-05-25T11:20:56.000Z,291.65
2023-05-25T11:23:02.000Z,291.84
2023-05-25T11:24:29.000Z,292.02
2023-05-25T11:26:35.000Z,291.9
2023-05-25T11:28:01.000Z,292.02
2023-05-25T11:30:07.000Z,292.15
2023-05-25T11:31:34.000Z,292.15
2023-05-25T11:33:47.000Z,292.27
2023-05-25T11:35:13.000Z,292.09
2023-05-25T11:37:20.000Z,292.21
2023-05-25T11:38:46.000Z,292.4
2023-05-25T11:41:07.000Z,292.34
2023-05-25T11:42:33.000Z,292.27
2023-05-25T11:44:40.000Z,292.27
2023-05-25T11:46:06.000Z,292.34
2023-05-25T11:48:13.000Z,292.27
2023-05-25T11:49:39.000Z,292.4
2023-05-25T11:51:45.000Z,292.46
2023-05-25T11:54:37.000Z,292.34
2023-05-25T11:56:03.000Z,292.59
2023-05-25T11:58:12.000Z,292.71
2023-05-25T11:59:39.000Z,292.9
2023-05-25T12:01:45.000Z,292.84
2023-05-25T12:03:11.000Z,292.9
2023-05-25T12:05:18.000Z,292.96
2023-05-25T12:06:45.000Z,292.96
2023-05-25T12:08:51.000Z,292.77
2023-05-25T12:10:17.000Z,292.84
2023-05-25T12:12:24.000Z,292.9
2023-05-25T12:13:50.000Z,292.84
2023-05-25T12:15:56.000Z,293.02
2023-05-25T12:17:23.000Z,293.02
2023-05-25T12:19:29.000Z,293.02
2023-05-25T12:20:56.000Z,293.15
2023-05-25T12:23:02.000Z,293.09
2023-05-25T12:24:28.000Z,293.09
2023-05-25T12:26:35.000Z,293.27
2023-05-25T12:28:01.000Z,293.34
2023-05-25T12:30:07.000Z,293.52
2023-05-25T12:32:59.000Z,293.52
2023-05-25T12:34:28.000Z,293.4
2023-05-25T12:36:34.000Z,293.52
2023-05-25T12:38:00.000Z,293.46
2023-05-25T12:40:07.000Z,293.59
2023-05-25T12:41:33.000Z,293.71
2023-05-25T12:43:39.000Z,293.65
2023-05-25T12:45:06.000Z,293.65
2023-05-25T12:47:12.000Z,293.84
2023-05-25T12:48:38.000Z,293.65
2023-05-25T12:50:45.000Z,293.96
2023-05-25T12:52:11.000Z,293.84
2023-05-25T12:54:18.000Z,294.02
2023-05-25T12:55:44.000Z,294.02
2023-05-25T12:57:51.000Z,293.9
2023-05-25T12:59:17.000Z,293.96
2023-05-25T13:01:23.000Z,294.02
2023-05-25T13:02:50.000Z,293.77
2023-05-25T13:04:56.000Z,293.65
2023-05-25T13:06:23.000Z,293.9
2023-05-25T13:08:29.000Z,294.09
2023-05-25T13:11:20.000Z,294.21
2023-05-25T13:12:47.000Z,294.15
2023-05-25T13:14:53.000Z,294.27
2023-05-25T13:16:20.000Z,294.27
2023-05-25T13:18:26.000Z,294.4
2023-05-25T13:19:52.000Z,294.27
2023-05-25T13:21:59.000Z,294.52
2023-05-25T13:23:25.000Z,294.46
2023-05-25T13:25:31.000Z,294.59
2023-05-25T13:26:58.000Z,294.52
2023-05-25T13:29:04.000Z,294.52
2023-05-25T13:30:31.000Z,294.4
2023-05-25T13:32:37.000Z,294.52
2023-05-25T13:34:03.000Z,294.59
2023-05-25T13:36:09.000Z,294.84
2023-05-25T13:37:36.000Z,294.84
2023-05-25T13:39:42.000Z,294.77
2023-05-25T13:41:09.000Z,294.65
2023-05-25T13:43:15.000Z,294.65
2023-05-25T13:44:42.000Z,294.59
2023-05-25T13:46:48.000Z,294.71
2023-05-25T13:49:39.000Z,294.59
2023-05-25T13:51:05.000Z,294.9
2023-05-25T13:53:11.000Z,294.77
2023-05-25T13:54:38.000Z,294.9
2023-05-25T13:56:44.000Z,294.9
2023-05-25T13:58:11.000Z,294.96
2023-05-25T14:00:17.000Z,294.96
2023-05-25T14:01:43.000Z,295.09
2023-05-25T14:03:50.000Z,295.21
2023-05-25T14:05:16.000Z,295.15
2023-05-25T14:07:23.000Z,295.21
2023-05-25T14:08:49.000Z,295.27
2023-05-25T14:10:55.000Z,295.4
2023-05-25T14:12:22.000Z,295.4
2023-05-25T14:14:28.000Z,295.02
2023-05-25T14:15:57.000Z,294.9
2023-05-25T14:18:03.000Z,295.15
2023-05-25T14:19:30.000Z,295.21
2023-05-25T14:21:36.000Z,295.02
2023-05-25T14:23:03.000Z,295.27
2023-05-25T14:25:09.000Z,295.46
2023-05-25T14:28:00.000Z,295.34
2023-05-25T14:29:27.000Z,295.52
2023-05-25T14:31:33.000Z,295.52
2023-05-25T14:32:59.000Z,295.4
2023-05-25T14:35:06.000Z,295.4
2023-05-25T14:36:32.000Z,295.34
2023-05-25T14:38:39.000Z,295.77
2023-05-25T14:40:05.000Z,295.71
2023-05-25T14:42:11.000Z,295.59
2023-05-25T14:43:38.000Z,295.65
2023-05-25T14:45:44.000Z,295.65
2023-05-25T14:47:11.000Z,295.59
2023-05-25T14:49:17.000Z,295.77
2023-05-25T14:50:44.000Z,295.9
2023-05-25T14:52:50.000Z,295.59
2023-05-25T14:54:17.000Z,295.46
2023-05-25T14:56:23.000Z,295.59
2023-05-25T14:57:49.000Z,295.52
2023-05-25T14:59:56.000Z,295.46
2023-05-25T15:01:22.000Z,295.71
2023-05-25T15:03:29.000Z,295.84
2023-05-25T15:06:21.000Z,295.84
2023-05-25T15:07:47.000Z,295.84
2023-05-25T15:09:53.000Z,295.59
2023-05-25T15:11:20.000Z,295.46
2023-05-25T15:13:26.000Z,295.46
2023-05-25T15:14:52.000Z,295.65
2023-05-25T15:16:59.000Z,295.46
2023-05-25T15:18:25.000Z,295.71
2023-05-25T15:20:31.000Z,295.52
2023-05-25T15:21:58.000Z,295.71
2023-05-25T15:24:04.000Z,295.59
2023-05-25T15:25:31.000Z,295.65
2023-05-25T15:27:39.000Z,295.59
2023-05-25T15:29:06.000Z,295.84
2023-05-25T15:31:12.000Z,295.9
2023-05-25T15:32:39.000Z,295.96
2023-05-25T15:34:45.000Z,296.21
2023-05-25T15:36:12.000Z,296.02
2023-05-25T15:38:18.000Z,295.77
2023-05-25T15:39:44.000Z,295.71
2023-05-25T15:41:51.000Z,295.77
2023-05-25T15:44:42.000Z,295.65
2023-05-25T15:46:09.000Z,295.71
2023-05-25T15:48:15.000Z,295.71
2023-05-25T15:49:41.000Z,295.59
2023-05-25T15:51:48.000Z,295.52
2023-05-25T15:53:14.000Z,295.71
2023-05-25T15:55:20.000Z,295.71
2023-05-25T15:56:47.000Z,295.65
2023-05-25T15:58:53.000Z,295.65
2023-05-25T16:00:19.000Z,295.4
2023-05-25T16:02:26.000Z,295.65
2023-05-25T16:03:52.000Z,295.59
2023-05-25T16:05:58.000Z,295.59
2023-05-25T16:07:25.000Z,295.65
2023-05-25T16:09:31.000Z,295.46
2023-05-25T16:10:57.000Z,295.46
2023-05-25T16:13:04.000Z,295.46
2023-05-25T16:14:30.000Z,295.52
2023-05-25T16:16:37.000Z,295.65
2023-05-25T16:18:03.000Z,295.65
2023-05-25T16:20:09.000Z,295.84
2023-05-25T16:23:01.000Z,295.71
2023-05-25T16:24:27.000Z,295.52
2023-05-25T16:26:33.000Z,295.52
2023-05-25T16:28:00.000Z,295.52
2023-05-25T16:30:06.000Z,295.59
2023-05-25T16:31:33.000Z,295.4
2023-05-25T16:33:39.000Z,295.21
2023-05-25T16:35:06.000Z,295.27
2023-05-25T16:37:12.000Z,295.21
2023-05-25T16:38:39.000Z,295.34
2023-05-25T16:40:45.000Z,295.34
2023-05-25T16:42:11.000Z,295.34
2023-05-25T16:44:18.000Z,295.52
2023-05-25T16:45:44.000Z,295.27
2023-05-25T16:47:51.000Z,295.27
2023-05-25T16:49:17.000Z,295.09
2023-05-25T16:51:23.000Z,295.09
2023-05-25T16:52:50.000Z,295.21
2023-05-25T16:54:56.000Z,294.84
2023-05-25T16:56:23.000Z,295.02
2023-05-25T16:58:29.000Z,295.15
2023-05-25T17:01:20.000Z,295.02
2023-05-25T17:02:46.000Z,295.15
2023-05-25T17:04:53.000Z,295.27
2023-05-25T17:06:19.000Z,295.21
2023-05-25T17:08:26.000Z,295.27
2023-05-25T17:09:52.000Z,294.96
2023-05-25T17:11:58.000Z,294.65
2023-05-25T17:13:25.000Z,294.84
2023-05-25T17:15:31.000Z,294.84
2023-05-25T17:16:58.000Z,294.77
2023-05-25T17:19:04.000Z,294.65
2023-05-25T17:20:31.000Z,294.71
2023-05-25T17:22:37.000Z,294.65
2023-05-25T17:24:03.000Z,294.59
2023-05-25T17:26:10.000Z,294.59
2023-05-25T17:27:36.000Z,294.65
2023-05-25T17:29:42.000Z,294.52
2023-05-25T17:31:09.000Z,294.34
2023-05-25T17:33:15.000Z,294.21
2023-05-25T17:34:42.000Z,293.77
2023-05-25T17:36:48.000Z,293.59
2023-05-25T17:39:39.000Z,292.84
2023-05-25T17:41:05.000Z,293.02
2023-05-25T17:43:12.000Z,293.27
2023-05-25T17:44:38.000Z,293.27
2023-05-25T17:46:44.000Z,293.15
2023-05-25T17:48:11.000Z,293.02
2023-05-25T17:50:17.000Z,292.9
2023-05-25T17:51:43.000Z,292.84
2023-05-25T17:53:50.000Z,292.84
2023-05-25T17:55:16.000Z,292.65
2023-05-25T17:57:22.000Z,292.59
2023-05-25T17:58:49.000Z,292.52
2023-05-25T18:00:55.000Z,292.34
2023-05-25T18:02:22.000Z,292.34
2023-05-25T18:04:28.000Z,292.27
2023-05-25T18:05:55.000Z,291.96
2023-05-25T18:08:01.000Z,291.77
2023-05-25T18:09:27.000Z,291.71
2023-05-25T18:11:34.000Z,291.65
2023-05-25T18:13:00.000Z,291.52
2023-05-25T18:15:06.000Z,291.34
2023-05-25T18:17:58.000Z,291.4
2023-05-25T18:19:24.000Z,291.34
2023-05-25T18:21:30.000Z,291.21
2023-05-25T18:22:57.000Z,291.15
2023-05-25T18:25:03.000Z,291.09
2023-05-25T18:26:29.000Z,290.9
2023-05-25T18:28:36.000Z,290.96
2023-05-25T18:30:02.000Z,291.02
2023-05-25T18:32:08.000Z,290.77
2023-05-25T18:33:35.000Z,290.59
2023-05-25T18:35:41.000Z,290.52
2023-05-25T18:37:08.000Z,290.34
2023-05-25T18:39:14.000Z,290.4
2023-05-25T18:40:41.000Z,290.27
2023-05-25T18:42:47.000Z,290.4
2023-05-25T18:44:13.000Z,290.21
2023-05-25T18:46:20.000Z,290.15
2023-05-25T18:47:46.000Z,289.96
2023-05-25T18:49:52.000Z,290.02
2023-05-25T18:51:19.000Z,289.96
2023-05-25T18:53:25.000Z,289.9
2023-05-25T18:56:16.000Z,289.46
2023-05-25T18:57:43.000Z,289.52
2023-05-25T18:59:49.000Z,289.27
2023-05-25T19:01:15.000Z,288.96
2023-05-25T19:03:22.000Z,288.96
2023-05-25T19:04:48.000Z,289.15
2023-05-25T19:06:55.000Z,289.21
2023-05-25T19:08:21.000Z,288.96
2023-05-25T19:10:27.000Z,288.96
2023-05-25T19:11:54.000Z,288.9
2023-05-25T19:14:00.000Z,288.96
2023-05-25T19:15:26.000Z,288.9
2023-05-25T19:17:32.000Z,288.71
2023-05-25T19:18:59.000Z,288.71
2023-05-25T19:21:05.000Z,288.52
2023-05-25T19:22:32.000Z,288.52
2023-05-25T19:24:38.000Z,288.46
2023-05-25T19:26:08.000Z,288.27
2023-05-25T19:28:14.000Z,288.27
2023-05-25T19:29:41.000Z,288.34
2023-05-25T19:31:47.000Z,288.27
2023-05-25T19:34:38.000Z,288.27
2023-05-25T19:36:05.000Z,287.96
2023-05-25T19:38:11.000Z,287.96
2023-05-25T19:39:38.000Z,287.96
2023-05-25T19:41:44.000Z,287.77
2023-05-25T19:43:10.000Z,287.84
2023-05-25T19:45:16.000Z,287.71
2023-05-25T19:46:43.000Z,287.52
2023-05-25T19:48:49.000Z,287.59
2023-05-25T19:50:16.000Z,287.59
2023-05-25T19:52:22.000Z,287.46
2023-05-25T19:53:48.000Z,287.46
2023-05-25T19:55:54.000Z,287.4
2023-05-25T19:57:21.000Z,287.52
2023-05-25T19:59:27.000Z,287.52
2023-05-25T20:00:53.000Z,287.27
2023-05-25T20:03:00.000Z,287.02
2023-05-25T20:04:26.000Z,287.02
2023-05-25T20:06:32.000Z,287.02
2023-05-25T20:07:59.000Z,286.96
2023-05-25T20:10:05.000Z,287.02
2023-05-25T20:12:56.000Z,286.9
2023-05-25T20:14:22.000Z,287.02
2023-05-25T20:16:28.000Z,287.02
2023-05-25T20:17:55.000Z,286.84
2023-05-25T20:20:01.000Z,286.77
2023-05-25T20:21:28.000Z,286.71
2023-05-25T20:23:35.000Z,286.77
2023-05-25T20:25:01.000Z,286.77
2023-05-25T20:27:07.000Z,286.65
2023-05-25T20:28:34.000Z,286.52
2023-05-25T20:30:40.000Z,286.4
2023-05-25T20:32:06.000Z,286.21
2023-05-25T20:34:13.000Z,286.02
2023-05-25T20:35:39.000Z,285.9
2023-05-25T20:37:45.000Z,285.84
2023-05-25T20:39:12.000Z,285.71
2023-05-25T20:41:18.000Z,285.65
2023-05-25T20:42:45.000Z,285.59
2023-05-25T20:44:51.000Z,285.59
2023-05-25T20:46:17.000Z,285.46
2023-05-25T20:48:23.000Z,285.46
2023-05-25T20:51:14.000Z,285.65
2023-05-25T20:52:41.000Z,285.65
2023-05-25T20:54:47.000Z,285.65
2023-05-25T20:56:14.000Z,285.65
2023-05-25T20:58:20.000Z,285.65
2023-05-25T20:59:46.000Z,285.65
2023-05-25T21:01:53.000Z,285.65
2023-05-25T21:03:19.000Z,285.46
2023-05-25T21:05:25.000Z,285.27
2023-05-25T21:06:52.000Z,285.34
2023-05-25T21:08:58.000Z,285.15
2023-05-25T21:10:25.000Z,285.02
2023-05-25T21:12:31.000Z,284.84
2023-05-25T21:13:57.000Z,284.9
2023-05-25T21:16:04.000Z,285.02
2023-05-25T21:17:30.000Z,284.9
2023-05-25T21:19:37.000Z,284.9
2023-05-25T21:21:03.000Z,284.9
2023-05-25T21:23:09.000Z,284.84
2023-05-25T21:24:36.000Z,284.71
2023-05-25T21:26:42.000Z,284.84
2023-05-25T21:29:33.000Z,284.59
2023-05-25T21:30:59.000Z,284.4
2023-05-25T21:33:06.000Z,284.34
2023-05-25T21:34:32.000Z,284.34
2023-05-25T21:36:38.000Z,284.34
2023-05-25T21:38:05.000Z,284.21
2023-05-25T21:40:11.000Z,284.21
2023-05-25T21:41:37.000Z,284.02
2023-05-25T21:43:43.000Z,284.09
2023-05-25T21:45:10.000Z,284.15
2023-05-25T21:47:16.000Z,283.77
2023-05-25T21:48:43.000Z,283.65
2023-05-25T21:50:49.000Z,283.65
2023-05-25T21:52:15.000Z,283.65
2023-05-25T21:54:21.000Z,283.84
2023-05-25T21:55:48.000Z,283.77
2023-05-25T21:57:54.000Z,283.71
2023-05-25T21:59:21.000Z,283.65
2023-05-25T22:01:27.000Z,283.65
2023-05-25T22:02:53.000Z,283.77
2023-05-25T22:05:00.000Z,283.34
2023-05-25T22:07:51.000Z,283.21
2023-05-25T22:09:20.000Z,283.15
2023-05-25T22:11:26.000Z,283.09
2023-05-25T22:12:52.000Z,283.15
2023-05-25T22:14:59.000Z,283.15
2023-05-25T22:16:25.000Z,283.27
2023-05-25T22:18:31.000Z,283.21
2023-05-25T22:19:59.000Z,283.15
2023-05-25T22:22:12.000Z,282.9
2023-05-25T22:23:38.000Z,282.84
2023-05-25T22:25:45.000Z,283.02
2023-05-25T22:27:11.000Z,282.9
2023-05-25T22:29:17.000Z,282.65
2023-05-25T22:30:44.000Z,282.59
2023-05-25T22:32:50.000Z,282.27
2023-05-25T22:34:17.000Z,282.27
2023-05-25T22:36:23.000Z,282.4
2023-05-25T22:37:49.000Z,282.4
2023-05-25T22:39:55.000Z,282.34
2023-05-25T22:41:22.000Z,282.27
2023-05-25T22:43:28.000Z,282.21
2023-05-25T22:46:19.000Z,282.21
2023-05-25T22:47:46.000Z,282.21
2023-05-25T22:49:52.000Z,282.27
2023-05-25T22:51:18.000Z,282.27
2023-05-25T22:53:25.000Z,282.02
2023-05-25T22:54:51.000Z,282.02